Windhoek, Namibia
Current Conditions -  °F | °C
As of 7:00 PM on Saturday 22 Nov 2014 (Local Time) from FYWE Reporting Station
Clear Clear  
Wind Chill: 21°   Ceiling: Unl
Heat Index: 21°   Visibility: 6mi
Dew Point:   Wind: 13mph
Humidity: 43%   Direction: 360°N
Pressure: 30.18"   Gusts: NA
Location:  22.56°S, 17.09°E
Report Text: FYWE 221800Z 36011KT CAVOK 21/08 Q1022
Loading
Personal Weather Stations






























Interactive Weather Map New forecast layout! Learn more

10-Day Weather Forecast

Advertisements
Track Severe Weather on mobile